Time;durP1;ratioP1;P1;durP2;ratioP2;P2;SDS_P1;SDS_P2;PMS_P1;PMS_P2;Temp;Humidity;BMP_temperature;BMP_pressure;BME280_temperature;BME280_humidity;BME280_pressure;Samples;Min_cycle;Max_cycle;Signal;HPM_P1;HPM_P2
2022/06/26 00:00:32;;;;;;;15.98;3.72;;;;;;;;;;5032771;28;20033;-44
2022/06/26 00:02:58;;;;;;;9.80;3.95;;;;;;;;;;5023551;28;20492;-45
2022/06/26 00:05:24;;;;;;;16.42;4.40;;;;;;;;;;5022162;28;20050;-43
2022/06/26 00:07:49;;;;;;;15.90;4.38;;;;;;;;;;5023789;28;20072;-46
2022/06/26 00:10:15;;;;;;;19.30;3.80;;;;;;;;;;5024757;28;20830;-49
2022/06/26 00:12:41;;;;;;;17.27;4.22;;;;;;;;;;5031993;28;20120;-49
2022/06/26 00:15:08;;;;;;;13.10;3.92;;;;;;;;;;5023911;28;20025;-50
2022/06/26 00:17:33;;;;;;;12.25;3.42;;;;;;;;;;5025055;28;20069;-43
2022/06/26 00:19:59;;;;;;;19.83;4.63;;;;;;;;;;5021677;28;20056;-47
2022/06/26 00:22:26;;;;;;;18.17;4.57;;;;;;;;;;5025466;28;20029;-44
2022/06/26 00:24:52;;;;;;;10.18;3.40;;;;;;;;;;5022272;28;20144;-45
2022/06/26 00:27:17;;;;;;;9.30;3.15;;;;;;;;;;5026304;28;20112;-45
2022/06/26 00:29:43;;;;;;;10.45;2.78;;;;;;;;;;5026994;28;20546;-45
2022/06/26 00:32:09;;;;;;;9.93;3.08;;;;;;;;;;5026126;28;20499;-44
2022/06/26 00:34:34;;;;;;;8.32;3.38;;;;;;;;;;5029182;28;20086;-45
2022/06/26 00:37:00;;;;;;;15.30;3.83;;;;;;;;;;5026938;28;20030;-47
2022/06/26 00:39:26;;;;;;;10.25;3.40;;;;;;;;;;5029885;28;20072;-46
2022/06/26 00:41:54;;;;;;;8.73;2.90;;;;;;;;;;5028360;28;20029;-44
2022/06/26 00:44:23;;;;;;;10.23;3.70;;;;;;;;;;5027953;28;20028;-43
2022/06/26 00:46:50;;;;;;;8.18;2.95;;;;;;;;;;5026939;28;20022;-45
2022/06/26 00:49:16;;;;;;;10.70;3.35;;;;;;;;;;5026984;28;20540;-43
2022/06/26 00:51:50;;;;;;;9.23;3.30;;;;;;;;;;5017574;28;20045;-44
2022/06/26 00:54:17;;;;;;;15.60;3.13;;;;;;;;;;5026826;28;20044;-45
2022/06/26 00:56:43;;;;;;;5.55;2.90;;;;;;;;;;5025106;28;20036;-45
2022/06/26 00:59:09;;;;;;;7.10;2.97;;;;;;;;;;5032266;28;20048;-43
2022/06/26 01:01:35;;;;;;;10.52;3.15;;;;;;;;;;5024891;28;20026;-45
2022/06/26 01:04:02;;;;;;;8.05;2.90;;;;;;;;;;5027464;28;20046;-50
2022/06/26 01:06:29;;;;;;;10.43;3.28;;;;;;;;;;5023906;28;20029;-43
2022/06/26 01:08:56;;;;;;;13.55;3.08;;;;;;;;;;5023479;28;20029;-47
2022/06/26 01:11:24;;;;;;;8.20;2.83;;;;;;;;;;5025194;28;20481;-45
2022/06/26 01:13:53;;;;;;;8.13;3.25;;;;;;;;;;5026229;28;20033;-44
2022/06/26 01:16:20;;;;;;;14.73;4.05;;;;;;;;;;5027326;28;20030;-49
2022/06/26 01:18:52;;;;;;;10.60;2.92;;;;;;;;;;5031096;28;20501;-43
2022/06/26 01:21:19;;;;;;;10.38;3.38;;;;;;;;;;5030681;28;20021;-50
2022/06/26 01:23:46;;;;;;;14.65;3.55;;;;;;;;;;5026480;28;20032;-48
2022/06/26 01:26:12;;;;;;;12.05;3.45;;;;;;;;;;5024272;28;20034;-46
2022/06/26 01:28:38;;;;;;;8.73;3.08;;;;;;;;;;5043504;28;20037;-43
2022/06/26 01:31:04;;;;;;;12.73;3.33;;;;;;;;;;5027969;28;20041;-44
2022/06/26 01:33:30;;;;;;;11.82;3.58;;;;;;;;;;5033022;28;20040;-49
2022/06/26 01:35:56;;;;;;;10.85;3.47;;;;;;;;;;5026342;28;20037;-43
2022/06/26 01:38:23;;;;;;;5.95;2.80;;;;;;;;;;5026193;28;20373;-43
2022/06/26 01:40:52;;;;;;;9.40;3.58;;;;;;;;;;5028340;28;20029;-43
2022/06/26 01:43:22;;;;;;;6.95;3.38;;;;;;;;;;5019199;28;20029;-43
2022/06/26 01:45:50;;;;;;;12.65;3.92;;;;;;;;;;5029076;28;20030;-43
2022/06/26 01:48:18;;;;;;;6.90;2.90;;;;;;;;;;5024433;28;20026;-44
2022/06/26 01:50:44;;;;;;;9.80;3.50;;;;;;;;;;5024576;28;20021;-44
2022/06/26 01:53:10;;;;;;;8.23;3.10;;;;;;;;;;5023948;28;20037;-43
2022/06/26 01:55:37;;;;;;;12.20;3.53;;;;;;;;;;5020573;28;20052;-46
2022/06/26 01:58:03;;;;;;;9.02;3.60;;;;;;;;;;5026858;28;20033;-45
2022/06/26 02:00:35;;;;;;;7.78;3.40;;;;;;;;;;5035405;28;20087;-43
2022/06/26 02:03:01;;;;;;;9.38;3.22;;;;;;;;;;5042862;28;20148;-51
2022/06/26 02:05:27;;;;;;;11.95;3.17;;;;;;;;;;5025798;28;20096;-44
2022/06/26 02:07:53;;;;;;;8.82;3.63;;;;;;;;;;5026842;28;20021;-46
2022/06/26 02:15:50;;;;;;;13.40;4.47;;;;;;;;;;5028416;28;20071;-44
2022/06/26 02:18:15;;;;;;;13.48;3.15;;;;;;;;;;5033607;28;20136;-45
2022/06/26 02:20:41;;;;;;;10.05;3.40;;;;;;;;;;5023006;28;20033;-51
2022/06/26 02:23:07;;;;;;;11.80;3.30;;;;;;;;;;5023520;28;20548;-49
2022/06/26 02:25:33;;;;;;;7.68;2.90;;;;;;;;;;5029414;28;20029;-43
2022/06/26 02:27:59;;;;;;;8.95;3.17;;;;;;;;;;5026112;28;20367;-42
2022/06/26 02:30:25;;;;;;;5.65;2.80;;;;;;;;;;5026871;28;20032;-44
2022/06/26 02:32:51;;;;;;;14.77;3.70;;;;;;;;;;5029090;28;20037;-49
2022/06/26 02:35:16;;;;;;;9.20;3.42;;;;;;;;;;5024667;28;20113;-43
2022/06/26 02:37:42;;;;;;;15.63;4.35;;;;;;;;;;5027816;28;20033;-43
2022/06/26 02:40:08;;;;;;;12.10;3.33;;;;;;;;;;5026371;28;20488;-43
2022/06/26 02:42:34;;;;;;;10.55;3.80;;;;;;;;;;5024586;28;20041;-43
2022/06/26 02:44:59;;;;;;;14.00;4.22;;;;;;;;;;5025529;28;20033;-49
2022/06/26 02:47:26;;;;;;;16.33;3.88;;;;;;;;;;5025091;28;20100;-50
2022/06/26 02:49:53;;;;;;;8.13;3.35;;;;;;;;;;5025329;28;20474;-47
2022/06/26 02:52:19;;;;;;;8.05;3.17;;;;;;;;;;5030544;28;20075;-52
2022/06/26 02:54:44;;;;;;;11.43;3.70;;;;;;;;;;5021313;28;20466;-46
2022/06/26 02:57:10;;;;;;;15.27;3.92;;;;;;;;;;5027218;28;20100;-47
2022/06/26 02:59:35;;;;;;;15.90;4.18;;;;;;;;;;5033135;28;20041;-46
2022/06/26 03:02:01;;;;;;;10.70;3.47;;;;;;;;;;5026938;28;20030;-48
2022/06/26 03:04:27;;;;;;;8.85;3.15;;;;;;;;;;5029127;28;20045;-43
2022/06/26 03:06:52;;;;;;;10.82;2.95;;;;;;;;;;5028509;28;20033;-51
2022/06/26 03:09:18;;;;;;;12.90;3.50;;;;;;;;;;5026800;28;20052;-48
2022/06/26 03:11:44;;;;;;;14.10;3.75;;;;;;;;;;5027005;28;20048;-44
2022/06/26 03:14:09;;;;;;;7.53;2.80;;;;;;;;;;5021831;28;20030;-46
2022/06/26 03:16:35;;;;;;;10.30;3.47;;;;;;;;;;5018796;28;20068;-43
2022/06/26 03:19:01;;;;;;;11.02;2.88;;;;;;;;;;5026639;28;20025;-42
2022/06/26 03:21:27;;;;;;;8.50;2.97;;;;;;;;;;5025783;28;20474;-43
2022/06/26 03:24:02;;;;;;;7.32;2.90;;;;;;;;;;5026954;28;20030;-49
2022/06/26 03:26:36;;;;;;;9.45;2.60;;;;;;;;;;5027401;28;20022;-51
2022/06/26 03:29:04;;;;;;;9.50;2.50;;;;;;;;;;5023993;28;20041;-48
2022/06/26 03:31:30;;;;;;;5.78;2.22;;;;;;;;;;5018460;28;20030;-45
2022/06/26 03:33:57;;;;;;;7.82;2.78;;;;;;;;;;5025016;28;20049;-49
2022/06/26 03:36:24;;;;;;;6.05;2.70;;;;;;;;;;5029953;28;20385;-46
2022/06/26 03:38:49;;;;;;;10.07;2.90;;;;;;;;;;5022758;28;20151;-50
2022/06/26 03:41:16;;;;;;;6.88;2.55;;;;;;;;;;5026587;28;20076;-46
2022/06/26 03:43:42;;;;;;;7.13;2.92;;;;;;;;;;5024949;28;20082;-44
2022/06/26 03:46:08;;;;;;;6.25;2.72;;;;;;;;;;5026091;28;20034;-45
2022/06/26 03:48:34;;;;;;;9.60;2.95;;;;;;;;;;5024249;28;20033;-49
2022/06/26 03:51:01;;;;;;;6.45;2.78;;;;;;;;;;5023928;28;20090;-47
2022/06/26 03:53:28;;;;;;;6.90;2.60;;;;;;;;;;5028673;28;20033;-52
2022/06/26 03:55:54;;;;;;;6.03;2.38;;;;;;;;;;5023413;28;20375;-49
2022/06/26 03:58:20;;;;;;;10.60;2.95;;;;;;;;;;5026875;28;20033;-46
2022/06/26 04:00:46;;;;;;;7.85;2.90;;;;;;;;;;5031140;28;20273;-45
2022/06/26 04:03:12;;;;;;;9.05;2.55;;;;;;;;;;5029627;28;20512;-50
2022/06/26 04:05:38;;;;;;;9.45;2.50;;;;;;;;;;5021619;28;20041;-43
2022/06/26 04:08:04;;;;;;;6.05;2.35;;;;;;;;;;5024044;28;20390;-43
2022/06/26 04:10:30;;;;;;;5.95;2.78;;;;;;;;;;5026460;28;20033;-43
2022/06/26 04:13:01;;;;;;;8.70;2.42;;;;;;;;;;5026350;28;20036;-51
2022/06/26 04:15:30;;;;;;;9.75;2.97;;;;;;;;;;5013810;28;20034;-43
2022/06/26 04:17:56;;;;;;;5.22;2.45;;;;;;;;;;5026449;28;20026;-48
2022/06/26 04:20:22;;;;;;;7.43;2.50;;;;;;;;;;5023159;28;20083;-46
2022/06/26 04:22:59;;;;;;;6.50;2.35;;;;;;;;;;5026073;28;20508;-50
2022/06/26 04:25:25;;;;;;;10.52;2.10;;;;;;;;;;5029588;28;20114;-44
2022/06/26 04:27:51;;;;;;;8.55;2.65;;;;;;;;;;5022183;28;20038;-51
2022/06/26 04:30:18;;;;;;;8.02;2.53;;;;;;;;;;5025953;28;20032;-48
2022/06/26 04:32:43;;;;;;;4.40;2.53;;;;;;;;;;5020759;28;20050;-47
2022/06/26 04:35:10;;;;;;;7.05;2.45;;;;;;;;;;5028311;28;20454;-51
2022/06/26 04:37:37;;;;;;;10.80;2.70;;;;;;;;;;5025294;28;20474;-49
2022/06/26 04:40:04;;;;;;;8.75;2.40;;;;;;;;;;5024454;28;20064;-48
2022/06/26 04:42:30;;;;;;;8.15;2.50;;;;;;;;;;5023855;28;20026;-49
2022/06/26 04:44:55;;;;;;;10.70;2.70;;;;;;;;;;5027313;28;20029;-52
2022/06/26 04:47:21;;;;;;;6.88;2.45;;;;;;;;;;5027647;28;20044;-49
2022/06/26 04:49:47;;;;;;;9.20;2.63;;;;;;;;;;5029421;28;20133;-49
2022/06/26 04:52:14;;;;;;;8.40;2.47;;;;;;;;;;5032815;28;20071;-47
2022/06/26 04:54:41;;;;;;;7.05;2.50;;;;;;;;;;5027508;28;20045;-51
2022/06/26 04:57:07;;;;;;;11.43;2.95;;;;;;;;;;5028415;28;20099;-44
2022/06/26 04:59:32;;;;;;;7.32;2.35;;;;;;;;;;5034270;28;20021;-48
2022/06/26 05:01:58;;;;;;;10.70;2.75;;;;;;;;;;5028195;28;20114;-51
2022/06/26 05:04:24;;;;;;;5.82;2.47;;;;;;;;;;5029209;28;20045;-52
2022/06/26 05:06:49;;;;;;;8.15;2.97;;;;;;;;;;5017996;28;20072;-51
2022/06/26 05:09:16;;;;;;;5.38;2.25;;;;;;;;;;5029345;28;20082;-51
2022/06/26 05:11:43;;;;;;;5.72;2.45;;;;;;;;;;5028638;28;20026;-49
2022/06/26 05:14:09;;;;;;;6.07;2.58;;;;;;;;;;5030633;28;20063;-47
2022/06/26 05:16:35;;;;;;;7.40;2.70;;;;;;;;;;5027705;28;20371;-44
2022/06/26 05:19:01;;;;;;;8.63;2.50;;;;;;;;;;5027806;28;20044;-49
2022/06/26 05:21:26;;;;;;;8.10;3.10;;;;;;;;;;5031228;28;20493;-43
2022/06/26 05:23:52;;;;;;;6.80;2.75;;;;;;;;;;5028048;28;20058;-44
2022/06/26 05:26:18;;;;;;;14.38;2.90;;;;;;;;;;5028742;28;20033;-43
2022/06/26 05:28:44;;;;;;;9.45;3.13;;;;;;;;;;5029726;28;20358;-44
2022/06/26 05:31:09;;;;;;;11.50;2.70;;;;;;;;;;5029297;28;20025;-43
2022/06/26 05:33:35;;;;;;;9.95;2.85;;;;;;;;;;5027527;28;20045;-43
2022/06/26 05:36:01;;;;;;;8.45;2.75;;;;;;;;;;5029728;28;20031;-45
2022/06/26 05:38:27;;;;;;;8.50;2.65;;;;;;;;;;5028665;28;20099;-43
2022/06/26 05:40:52;;;;;;;10.77;3.00;;;;;;;;;;5028272;28;20117;-45
2022/06/26 05:43:18;;;;;;;8.60;2.83;;;;;;;;;;5024631;28;20060;-43
2022/06/26 05:45:44;;;;;;;7.85;2.63;;;;;;;;;;5028937;28;20044;-48
2022/06/26 05:48:09;;;;;;;8.68;2.88;;;;;;;;;;5030682;28;20487;-43
2022/06/26 05:50:35;;;;;;;13.60;3.30;;;;;;;;;;5029155;28;20017;-42
2022/06/26 05:53:00;;;;;;;11.35;3.20;;;;;;;;;;5027281;28;20083;-45
2022/06/26 05:55:26;;;;;;;8.48;2.67;;;;;;;;;;5026535;28;20575;-44
2022/06/26 05:57:52;;;;;;;5.72;2.70;;;;;;;;;;5027180;28;20060;-43
2022/06/26 06:00:18;;;;;;;9.38;3.10;;;;;;;;;;5031058;28;20017;-48
2022/06/26 06:02:44;;;;;;;8.73;3.00;;;;;;;;;;5026880;28;20029;-44
2022/06/26 06:05:10;;;;;;;9.10;2.90;;;;;;;;;;5024379;28;20493;-43
2022/06/26 06:07:36;;;;;;;12.35;3.10;;;;;;;;;;5029677;28;20033;-43
2022/06/26 06:10:06;;;;;;;11.68;2.63;;;;;;;;;;5028741;28;20048;-45
2022/06/26 06:12:32;;;;;;;7.30;2.78;;;;;;;;;;5027951;28;20614;-43
2022/06/26 06:14:58;;;;;;;7.30;2.85;;;;;;;;;;5029060;28;20083;-44
2022/06/26 06:17:36;;;;;;;6.18;2.60;;;;;;;;;;5027734;28;20444;-43
2022/06/26 06:20:04;;;;;;;8.93;2.80;;;;;;;;;;5024833;28;20025;-47
2022/06/26 06:22:30;;;;;;;9.13;2.80;;;;;;;;;;5024340;28;20037;-44
2022/06/26 06:24:55;;;;;;;10.23;3.10;;;;;;;;;;5028394;28;20034;-46
2022/06/26 06:27:21;;;;;;;8.15;2.63;;;;;;;;;;5029557;28;20574;-45
2022/06/26 06:29:47;;;;;;;5.70;2.70;;;;;;;;;;5028264;28;20029;-46
2022/06/26 06:32:13;;;;;;;10.70;2.92;;;;;;;;;;5026478;28;20029;-47
2022/06/26 06:34:38;;;;;;;7.85;2.38;;;;;;;;;;5026667;28;20497;-46
2022/06/26 06:37:04;;;;;;;10.02;3.10;;;;;;;;;;5025844;28;20049;-43
2022/06/26 06:39:30;;;;;;;5.90;2.47;;;;;;;;;;5028240;28;20072;-43
2022/06/26 06:41:55;;;;;;;12.45;2.85;;;;;;;;;;5026866;28;20033;-43
2022/06/26 06:44:21;;;;;;;5.47;2.42;;;;;;;;;;5027382;28;20029;-44
2022/06/26 06:46:47;;;;;;;5.03;2.50;;;;;;;;;;5026857;28;20025;-46
2022/06/26 06:49:13;;;;;;;6.25;2.60;;;;;;;;;;5027993;28;20083;-43
2022/06/26 06:51:38;;;;;;;4.75;2.25;;;;;;;;;;5028079;28;20025;-49
2022/06/26 06:54:04;;;;;;;8.90;3.20;;;;;;;;;;5027506;28;20033;-46
2022/06/26 06:56:30;;;;;;;6.75;2.50;;;;;;;;;;5025579;28;20033;-43
2022/06/26 06:58:55;;;;;;;7.20;2.40;;;;;;;;;;5026734;28;20040;-43
2022/06/26 07:01:21;;;;;;;10.23;2.25;;;;;;;;;;5023599;28;20067;-45
2022/06/26 07:03:47;;;;;;;7.00;2.40;;;;;;;;;;5024680;28;20045;-45
2022/06/26 07:06:12;;;;;;;9.23;2.85;;;;;;;;;;5026805;28;20033;-45
2022/06/26 07:08:38;;;;;;;9.50;2.30;;;;;;;;;;5026436;28;20033;-46
2022/06/26 07:11:04;;;;;;;7.15;2.42;;;;;;;;;;5025986;28;20052;-43
2022/06/26 07:13:29;;;;;;;6.30;2.00;;;;;;;;;;5026817;28;20037;-47
2022/06/26 07:15:56;;;;;;;6.28;2.17;;;;;;;;;;5026309;28;20033;-46
2022/06/26 07:18:22;;;;;;;7.20;2.47;;;;;;;;;;5029197;28;20137;-43
2022/06/26 07:20:48;;;;;;;5.80;2.10;;;;;;;;;;5025413;28;20064;-44
2022/06/26 07:23:13;;;;;;;6.18;2.20;;;;;;;;;;5027347;28;20049;-44
2022/06/26 07:25:39;;;;;;;5.22;2.25;;;;;;;;;;5024326;28;20152;-43
2022/06/26 07:28:04;;;;;;;6.68;2.05;;;;;;;;;;5024714;28;20028;-43
2022/06/26 07:30:31;;;;;;;4.30;2.08;;;;;;;;;;5025766;28;20118;-43
2022/06/26 07:32:57;;;;;;;11.30;2.78;;;;;;;;;;5027692;28;20481;-43
2022/06/26 07:35:23;;;;;;;4.70;2.10;;;;;;;;;;5025195;28;20041;-46
2022/06/26 07:37:48;;;;;;;9.48;2.15;;;;;;;;;;5025911;28;20033;-46
2022/06/26 07:40:14;;;;;;;5.03;2.10;;;;;;;;;;5028663;28;20028;-46
2022/06/26 07:42:40;;;;;;;5.22;2.10;;;;;;;;;;5025518;28;20564;-46
2022/06/26 07:45:06;;;;;;;6.05;2.45;;;;;;;;;;5026074;28;20049;-43
2022/06/26 07:47:31;;;;;;;9.43;2.20;;;;;;;;;;5023926;28;20057;-44
2022/06/26 07:49:57;;;;;;;4.95;1.75;;;;;;;;;;5025498;28;20064;-46
2022/06/26 07:52:23;;;;;;;8.40;2.10;;;;;;;;;;5026217;28;20053;-46
2022/06/26 07:54:49;;;;;;;3.67;2.00;;;;;;;;;;5024928;28;20049;-43
2022/06/26 07:57:14;;;;;;;4.78;2.13;;;;;;;;;;5026656;28;20025;-45
2022/06/26 07:59:40;;;;;;;12.13;2.13;;;;;;;;;;5025763;28;20034;-48
2022/06/26 08:02:06;;;;;;;3.95;1.75;;;;;;;;;;5024926;28;20095;-44
2022/06/26 08:04:32;;;;;;;6.60;1.98;;;;;;;;;;5025840;28;20057;-43
2022/06/26 08:06:58;;;;;;;8.88;2.55;;;;;;;;;;5025146;28;20022;-44
2022/06/26 08:09:23;;;;;;;7.47;2.38;;;;;;;;;;5026455;28;20095;-44
2022/06/26 08:11:49;;;;;;;7.40;1.98;;;;;;;;;;5026331;28;20049;-43
2022/06/26 08:14:15;;;;;;;6.70;2.15;;;;;;;;;;5025496;28;20367;-46
2022/06/26 08:16:40;;;;;;;13.18;2.42;;;;;;;;;;5025924;28;20029;-44
2022/06/26 08:19:07;;;;;;;6.78;2.40;;;;;;;;;;5024505;28;20071;-44
2022/06/26 08:24:17;;;;;;;10.15;2.40;;;;;;;;;;5024578;28;20030;-43
2022/06/26 08:26:43;;;;;;;9.52;2.58;;;;;;;;;;5024702;28;20037;-44
2022/06/26 08:29:08;;;;;;;10.35;2.08;;;;;;;;;;5024809;28;20037;-46
2022/06/26 08:31:34;;;;;;;7.65;2.00;;;;;;;;;;5026323;28;20060;-43
2022/06/26 08:34:00;;;;;;;6.95;1.92;;;;;;;;;;5024738;28;20029;-45
2022/06/26 08:36:25;;;;;;;10.88;2.60;;;;;;;;;;5024863;28;20540;-50
2022/06/26 08:38:51;;;;;;;8.02;2.40;;;;;;;;;;5015179;28;20033;-49
2022/06/26 08:41:22;;;;;;;5.10;2.13;;;;;;;;;;5018173;28;20096;-44
2022/06/26 08:43:50;;;;;;;6.40;2.47;;;;;;;;;;5022163;28;20034;-43
2022/06/26 08:46:17;;;;;;;10.35;3.17;;;;;;;;;;5034508;28;20056;-47
2022/06/26 08:48:46;;;;;;;10.50;3.00;;;;;;;;;;5018855;28;20501;-47
2022/06/26 08:51:12;;;;;;;6.93;2.63;;;;;;;;;;5017030;28;20037;-44
2022/06/26 08:53:39;;;;;;;12.05;2.92;;;;;;;;;;5020639;28;20034;-43
2022/06/26 08:56:05;;;;;;;8.07;2.95;;;;;;;;;;5018510;28;20099;-43
2022/06/26 08:58:31;;;;;;;10.23;2.60;;;;;;;;;;5014371;28;20148;-43
2022/06/26 09:00:57;;;;;;;8.10;2.60;;;;;;;;;;5023658;28;20033;-44
2022/06/26 09:03:23;;;;;;;6.18;2.63;;;;;;;;;;5023662;28;20481;-47
2022/06/26 09:05:49;;;;;;;9.20;2.72;;;;;;;;;;5022622;28;20045;-46
2022/06/26 09:08:19;;;;;;;9.27;2.65;;;;;;;;;;5021570;28;20386;-44
2022/06/26 09:10:47;;;;;;;7.47;2.73;;;;;;;;;;5025294;28;20078;-46
2022/06/26 09:13:14;;;;;;;7.10;3.00;;;;;;;;;;5022123;28;20083;-46
2022/06/26 09:15:41;;;;;;;8.57;2.95;;;;;;;;;;5015645;28;20504;-45
2022/06/26 09:18:09;;;;;;;9.25;2.60;;;;;;;;;;5019637;28;20057;-47
2022/06/26 09:20:36;;;;;;;17.65;2.58;;;;;;;;;;5019187;28;20067;-44
2022/06/26 09:23:03;;;;;;;8.20;2.83;;;;;;;;;;5023262;28;20048;-45
2022/06/26 09:25:36;;;;;;;13.35;2.88;;;;;;;;;;5020659;28;20029;-44
2022/06/26 09:28:09;;;;;;;5.82;2.25;;;;;;;;;;5021011;28;20037;-46
2022/06/26 09:30:55;;;;;;;16.90;6.72;;;;;;;;;;5023828;28;20034;-44
2022/06/26 09:33:29;;;;;;;6.47;2.90;;;;;;;;;;5024255;28;20120;-43
2022/06/26 09:35:56;;;;;;;9.95;3.80;;;;;;;;;;5021149;28;20033;-43
2022/06/26 09:38:23;;;;;;;5.03;2.95;;;;;;;;;;5024087;28;20044;-46
2022/06/26 09:40:53;;;;;;;6.85;3.00;;;;;;;;;;5024058;28;20021;-43
2022/06/26 09:43:25;;;;;;;10.50;2.83;;;;;;;;;;5023214;28;20040;-47
2022/06/26 09:45:53;;;;;;;18.65;12.00;;;;;;;;;;5022804;28;20026;-44
2022/06/26 09:48:20;;;;;;;13.10;5.22;;;;;;;;;;5024834;28;20507;-44
2022/06/26 09:50:46;;;;;;;9.52;4.43;;;;;;;;;;5025752;28;20103;-43
2022/06/26 09:53:14;;;;;;;18.42;4.63;;;;;;;;;;5026524;28;20029;-45
2022/06/26 09:55:40;;;;;;;9.55;3.95;;;;;;;;;;5026022;28;20478;-43
2022/06/26 09:58:08;;;;;;;11.25;5.03;;;;;;;;;;5029628;28;20048;-49
2022/06/26 10:00:35;;;;;;;9.63;2.47;;;;;;;;;;5027595;28;20030;-48
2022/06/26 10:08:37;;;;;;;8.70;3.15;;;;;;;;;;5026336;28;20390;-46
2022/06/26 10:11:05;;;;;;;11.15;2.90;;;;;;;;;;5027586;28;20382;-45
2022/06/26 10:13:33;;;;;;;11.38;2.47;;;;;;;;;;5027322;28;20033;-47
2022/06/26 10:16:19;;;;;;;11.02;3.00;;;;;;;;;;5028336;28;20520;-45
2022/06/26 10:19:09;;;;;;;5.15;2.45;;;;;;;;;;5005919;28;20061;-46
2022/06/26 10:21:39;;;;;;;13.48;4.97;;;;;;;;;;5001240;28;20108;-47
2022/06/26 10:24:06;;;;;;;9.93;3.33;;;;;;;;;;5005578;28;20145;-46
2022/06/26 10:26:33;;;;;;;9.80;3.03;;;;;;;;;;5006498;28;20160;-44
2022/06/26 10:29:07;;;;;;;10.48;2.92;;;;;;;;;;5006369;28;20041;-47
2022/06/26 10:31:42;;;;;;;8.63;2.70;;;;;;;;;;5005033;28;20425;-46
2022/06/26 10:34:20;;;;;;;9.80;2.70;;;;;;;;;;5004107;28;20033;-49
2022/06/26 10:37:14;;;;;;;11.40;2.80;;;;;;;;;;4999473;28;20113;-47
2022/06/26 10:39:41;;;;;;;8.40;2.60;;;;;;;;;;5003763;28;20073;-45
2022/06/26 10:45:31;;;;;;;6.28;2.15;;;;;;;;;;5005546;28;20066;-43
2022/06/26 10:48:00;;;;;;;10.25;2.58;;;;;;;;;;5005255;28;20049;-44
2022/06/26 10:50:30;;;;;;;9.75;2.92;;;;;;;;;;5006453;28;20034;-50
2022/06/26 10:53:25;;;;;;;8.60;2.20;;;;;;;;;;4997064;28;20026;-48
2022/06/26 10:55:58;;;;;;;16.77;3.28;;;;;;;;;;5014900;28;20041;-44
2022/06/26 10:58:35;;;;;;;13.77;3.10;;;;;;;;;;5024144;28;20037;-44
2022/06/26 11:01:04;;;;;;;7.78;2.90;;;;;;;;;;5024205;28;20505;-47
2022/06/26 11:03:30;;;;;;;7.35;2.60;;;;;;;;;;5026061;28;20048;-47
2022/06/26 11:05:59;;;;;;;15.70;3.30;;;;;;;;;;5023551;28;20644;-44
2022/06/26 11:08:33;;;;;;;7.78;2.42;;;;;;;;;;5021240;28;20029;-50
2022/06/26 11:11:19;;;;;;;10.38;2.60;;;;;;;;;;5026482;28;20042;-48
2022/06/26 11:13:52;;;;;;;9.40;2.55;;;;;;;;;;5024271;28;20040;-43
2022/06/26 11:16:29;;;;;;;15.73;3.22;;;;;;;;;;5024918;28;20025;-43
2022/06/26 11:18:55;;;;;;;10.30;2.60;;;;;;;;;;5026160;28;20159;-43
2022/06/26 11:21:21;;;;;;;8.90;2.65;;;;;;;;;;5026734;28;20104;-44
2022/06/26 11:23:51;;;;;;;7.78;2.65;;;;;;;;;;5025202;28;20033;-43
2022/06/26 11:26:20;;;;;;;6.70;2.60;;;;;;;;;;5025137;28;20045;-44
2022/06/26 11:28:54;;;;;;;7.82;3.10;;;;;;;;;;5026129;28;20042;-52
2022/06/26 11:31:23;;;;;;;6.60;2.92;;;;;;;;;;5025976;28;20240;-47
2022/06/26 11:33:48;;;;;;;5.95;2.45;;;;;;;;;;5024309;28;20087;-49
2022/06/26 11:36:15;;;;;;;13.43;3.03;;;;;;;;;;5027361;28;20482;-44
2022/06/26 11:38:53;;;;;;;10.27;2.75;;;;;;;;;;5021380;28;20036;-44
2022/06/26 11:41:23;;;;;;;11.07;3.00;;;;;;;;;;5025959;28;20029;-50
2022/06/26 11:43:55;;;;;;;10.02;3.33;;;;;;;;;;5024941;28;20036;-45
2022/06/26 11:46:22;;;;;;;10.43;2.88;;;;;;;;;;5022717;28;20037;-49
2022/06/26 11:48:52;;;;;;;9.55;2.88;;;;;;;;;;5025858;28;20037;-44
2022/06/26 11:51:20;;;;;;;7.20;2.90;;;;;;;;;;5023030;28;20053;-48
2022/06/26 11:53:49;;;;;;;10.75;3.05;;;;;;;;;;5026054;28;20060;-50
2022/06/26 11:56:21;;;;;;;6.63;3.05;;;;;;;;;;5023428;28;20029;-44
2022/06/26 11:58:49;;;;;;;11.95;3.22;;;;;;;;;;5026236;28;20033;-47
2022/06/26 12:01:15;;;;;;;17.60;3.45;;;;;;;;;;5025214;28;20394;-45
2022/06/26 12:03:47;;;;;;;10.45;3.55;;;;;;;;;;5025402;28;20038;-51
2022/06/26 12:06:32;;;;;;;;;;;;;;;;;;5025561;28;20132;-45
2022/06/26 12:08:59;;;;;;;15.30;3.55;;;;;;;;;;5026144;28;19925;-47
2022/06/26 12:11:25;;;;;;;18.30;3.33;;;;;;;;;;5018959;28;20497;-48
2022/06/26 12:13:52;;;;;;;18.02;3.70;;;;;;;;;;5026068;28;20030;-44
2022/06/26 12:16:18;;;;;;;14.85;3.72;;;;;;;;;;5025688;28;20083;-47
2022/06/26 12:18:44;;;;;;;19.40;3.42;;;;;;;;;;5025726;28;20037;-44
2022/06/26 12:21:20;;;;;;;20.85;3.75;;;;;;;;;;5025656;28;20062;-45
2022/06/26 12:23:48;;;;;;;13.73;3.60;;;;;;;;;;5025835;28;20037;-50
2022/06/26 12:26:19;;;;;;;13.43;3.22;;;;;;;;;;5021929;28;20030;-48
2022/06/26 12:29:00;;;;;;;13.18;3.35;;;;;;;;;;5025291;28;20477;-46
2022/06/26 12:31:26;;;;;;;10.18;3.15;;;;;;;;;;5023293;28;20059;-45
2022/06/26 12:33:52;;;;;;;10.05;3.47;;;;;;;;;;5026081;28;20033;-46
2022/06/26 12:36:18;;;;;;;13.93;4.22;;;;;;;;;;5027801;28;20064;-52
2022/06/26 12:38:45;;;;;;;13.95;3.50;;;;;;;;;;5023632;28;20049;-52
2022/06/26 12:41:18;;;;;;;12.55;3.67;;;;;;;;;;5025924;28;20436;-47
2022/06/26 12:43:48;;;;;;;14.13;3.60;;;;;;;;;;5019058;28;20037;-48
2022/06/26 12:46:14;;;;;;;10.23;3.78;;;;;;;;;;5024445;28;20563;-51
2022/06/26 12:48:39;;;;;;;14.68;3.67;;;;;;;;;;5024248;28;20037;-47
2022/06/26 12:51:05;;;;;;;16.58;3.88;;;;;;;;;;5026928;28;20021;-48
2022/06/26 12:53:31;;;;;;;16.35;4.25;;;;;;;;;;5024462;28;20029;-46
2022/06/26 12:55:57;;;;;;;15.30;4.15;;;;;;;;;;5024068;28;20044;-50
2022/06/26 12:58:24;;;;;;;16.40;4.25;;;;;;;;;;5022190;28;20120;-50
2022/06/26 13:00:49;;;;;;;17.50;3.72;;;;;;;;;;5027414;28;20449;-44
2022/06/26 13:03:15;;;;;;;12.68;3.45;;;;;;;;;;5026721;28;20187;-46
2022/06/26 13:05:41;;;;;;;15.35;3.67;;;;;;;;;;5027867;28;20045;-45
2022/06/26 13:08:06;;;;;;;13.63;3.70;;;;;;;;;;5028348;28;20473;-45
2022/06/26 13:10:32;;;;;;;11.35;3.38;;;;;;;;;;5023478;28;20109;-44
2022/06/26 13:12:58;;;;;;;11.35;3.38;;;;;;;;;;5023133;28;20030;-49
2022/06/26 13:15:24;;;;;;;18.30;4.20;;;;;;;;;;5023052;28;20029;-49
2022/06/26 13:17:49;;;;;;;13.40;3.70;;;;;;;;;;5023532;28;20474;-48
2022/06/26 13:20:15;;;;;;;15.70;3.58;;;;;;;;;;5026287;28;20029;-49
2022/06/26 13:22:41;;;;;;;19.75;3.85;;;;;;;;;;5026058;28;20164;-50
2022/06/26 13:25:07;;;;;;;17.45;3.97;;;;;;;;;;5025711;28;20072;-47
2022/06/26 13:27:33;;;;;;;14.00;3.95;;;;;;;;;;5029583;28;20135;-52
2022/06/26 13:29:58;;;;;;;17.65;3.53;;;;;;;;;;5025278;28;20053;-49
2022/06/26 13:32:24;;;;;;;15.27;4.07;;;;;;;;;;5024545;28;20025;-52
2022/06/26 13:34:51;;;;;;;15.15;3.83;;;;;;;;;;5029234;28;20052;-53
2022/06/26 13:37:18;;;;;;;16.63;3.92;;;;;;;;;;5026767;28;20040;-52
2022/06/26 13:39:43;;;;;;;30.17;4.68;;;;;;;;;;5029723;28;20064;-47
2022/06/26 13:42:09;;;;;;;48.58;5.00;;;;;;;;;;5026518;28;20481;-44
2022/06/26 13:44:35;;;;;;;69.20;6.00;;;;;;;;;;5025353;28;20026;-45
2022/06/26 13:47:00;;;;;;;21.65;4.85;;;;;;;;;;5026102;28;20038;-45
2022/06/26 13:49:26;;;;;;;23.30;4.30;;;;;;;;;;5026563;28;20211;-49
2022/06/26 13:51:52;;;;;;;22.98;4.43;;;;;;;;;;5024967;28;20641;-50
2022/06/26 13:54:18;;;;;;;29.60;4.63;;;;;;;;;;5029023;28;20029;-52
2022/06/26 13:56:43;;;;;;;17.17;3.88;;;;;;;;;;5023450;28;20035;-50
2022/06/26 13:59:09;;;;;;;19.10;4.05;;;;;;;;;;5024088;28;20036;-45
2022/06/26 14:01:35;;;;;;;15.23;3.90;;;;;;;;;;5023780;28;20397;-47
2022/06/26 14:04:01;;;;;;;23.73;4.28;;;;;;;;;;5026994;28;20037;-49
2022/06/26 14:06:27;;;;;;;16.15;3.72;;;;;;;;;;5029396;28;20125;-48
2022/06/26 14:08:53;;;;;;;12.52;3.42;;;;;;;;;;5028754;28;20071;-48
2022/06/26 14:11:21;;;;;;;14.43;3.47;;;;;;;;;;5026669;28;20033;-50
2022/06/26 14:13:47;;;;;;;14.15;3.75;;;;;;;;;;5027469;28;20462;-48
2022/06/26 14:16:13;;;;;;;11.15;3.30;;;;;;;;;;5026800;28;20087;-48
2022/06/26 14:18:39;;;;;;;20.00;4.30;;;;;;;;;;5028134;28;20079;-45
2022/06/26 14:21:07;;;;;;;16.10;3.92;;;;;;;;;;5029522;28;20037;-46
2022/06/26 14:26:18;;;;;;;16.20;3.88;;;;;;;;;;5021705;28;20048;-45
2022/06/26 14:28:44;;;;;;;10.60;3.72;;;;;;;;;;5021816;28;20037;-49
2022/06/26 14:31:10;;;;;;;17.70;3.97;;;;;;;;;;5023269;28;20025;-48
2022/06/26 14:33:36;;;;;;;17.33;3.88;;;;;;;;;;5026919;28;20041;-51
2022/06/26 14:36:03;;;;;;;13.65;3.60;;;;;;;;;;5029191;28;20674;-50
2022/06/26 14:38:29;;;;;;;28.88;3.72;;;;;;;;;;5023105;28;20029;-51
2022/06/26 14:40:56;;;;;;;12.25;3.42;;;;;;;;;;5026094;28;20052;-49
2022/06/26 14:43:21;;;;;;;17.02;3.20;;;;;;;;;;5026968;28;20160;-47
2022/06/26 14:45:48;;;;;;;15.77;3.38;;;;;;;;;;5026258;28;20116;-48
2022/06/26 14:48:14;;;;;;;19.27;3.60;;;;;;;;;;5027098;28;20033;-51
2022/06/26 14:50:43;;;;;;;14.77;4.28;;;;;;;;;;5025619;28;20033;-47
2022/06/26 14:53:09;;;;;;;15.00;3.70;;;;;;;;;;5026428;28;20033;-51
2022/06/26 14:55:35;;;;;;;21.00;4.05;;;;;;;;;;5026864;28;20025;-52